createdAt,value
2022-09-15T00:00:26.847Z,14.10
2022-09-15T00:01:26.914Z,14.08
2022-09-15T00:02:26.976Z,14.05
2022-09-15T00:03:26.808Z,14.04
2022-09-15T00:04:26.785Z,14.03
2022-09-15T00:05:26.790Z,13.99
2022-09-15T00:06:26.794Z,14.03
2022-09-15T00:07:26.834Z,14.00
2022-09-15T00:08:26.751Z,13.99
2022-09-15T00:09:26.785Z,13.96
2022-09-15T00:10:26.714Z,13.95
2022-09-15T00:11:26.736Z,13.92
2022-09-15T00:12:26.755Z,13.90
2022-09-15T00:13:26.744Z,13.90
2022-09-15T00:14:26.699Z,13.90
2022-09-15T00:15:26.680Z,13.87
2022-09-15T00:16:26.701Z,13.87
2022-09-15T00:17:26.708Z,13.85
2022-09-15T00:18:26.661Z,13.83
2022-09-15T00:19:26.647Z,13.79
2022-09-15T00:20:26.633Z,13.79
2022-09-15T00:21:26.627Z,13.78
2022-09-15T00:22:26.638Z,13.81
2022-09-15T00:23:26.578Z,13.79
2022-09-15T00:24:26.570Z,13.79
2022-09-15T00:25:26.583Z,13.83
2022-09-15T00:26:26.555Z,13.79
2022-09-15T00:27:26.581Z,13.77
2022-09-15T00:28:26.541Z,13.77
2022-09-15T00:29:26.528Z,13.75
2022-09-15T00:30:26.559Z,13.72
2022-09-15T00:31:26.549Z,13.72
2022-09-15T00:32:26.518Z,13.72
2022-09-15T00:33:26.473Z,13.68
2022-09-15T00:34:26.448Z,13.70
2022-09-15T00:35:26.438Z,13.70
2022-09-15T00:36:26.438Z,13.71
2022-09-15T00:37:26.454Z,13.70
2022-09-15T00:38:26.415Z,13.72
2022-09-15T00:39:26.463Z,13.74
2022-09-15T00:40:26.462Z,13.70
2022-09-15T00:41:26.375Z,13.74
2022-09-15T00:42:26.400Z,13.72
2022-09-15T00:43:26.358Z,13.71
2022-09-15T00:44:26.355Z,13.72
2022-09-15T00:45:26.357Z,13.71
2022-09-15T00:46:26.324Z,13.70
2022-09-15T00:47:26.371Z,13.68
2022-09-15T00:48:26.314Z,13.71
2022-09-15T00:49:26.291Z,13.70
2022-09-15T00:50:26.295Z,13.68
2022-09-15T00:51:26.281Z,13.63
2022-09-15T00:52:26.295Z,13.59
2022-09-15T00:53:26.255Z,13.57
2022-09-15T00:54:26.277Z,13.56
2022-09-15T00:55:26.246Z,13.59
2022-09-15T00:56:26.212Z,13.60
2022-09-15T00:57:26.237Z,13.59
2022-09-15T00:58:26.201Z,13.57
2022-09-15T00:59:26.178Z,13.59
2022-09-15T01:00:26.175Z,13.57
2022-09-15T01:01:26.194Z,13.54
2022-09-15T01:02:26.247Z,13.56
2022-09-15T01:03:26.138Z,13.57
2022-09-15T01:04:26.138Z,13.56
2022-09-15T01:05:26.112Z,13.56
2022-09-15T01:06:26.080Z,13.54
2022-09-15T01:07:26.102Z,13.53
2022-09-15T01:08:26.060Z,13.53
2022-09-15T01:09:26.065Z,13.53
2022-09-15T01:10:26.057Z,13.52
2022-09-15T01:11:26.048Z,13.53
2022-09-15T01:12:26.084Z,13.53
2022-09-15T01:13:26.031Z,13.52
2022-09-15T01:14:26.018Z,13.50
2022-09-15T01:15:25.983Z,13.46
2022-09-15T01:16:26.062Z,13.44
2022-09-15T01:17:26.015Z,13.38
2022-09-15T01:18:25.982Z,13.35
2022-09-15T01:19:25.951Z,13.31
2022-09-15T01:20:25.958Z,13.27
2022-09-15T01:21:25.933Z,13.23
2022-09-15T01:22:25.963Z,13.23
2022-09-15T01:23:25.913Z,13.19
2022-09-15T01:24:25.908Z,13.16
2022-09-15T01:25:25.897Z,13.13
2022-09-15T01:26:25.878Z,13.15
2022-09-15T01:27:41.609Z,13.18
2022-09-15T01:28:26.855Z,13.22
2022-09-15T01:29:25.858Z,13.22
2022-09-15T01:30:25.834Z,13.20
2022-09-15T01:31:25.894Z,13.18
2022-09-15T01:32:25.845Z,13.13
2022-09-15T01:33:25.791Z,13.09
2022-09-15T01:34:25.804Z,13.11
2022-09-15T01:35:25.766Z,13.08
2022-09-15T01:36:25.779Z,13.03
2022-09-15T01:37:25.798Z,13.00
2022-09-15T01:38:25.738Z,12.95
2022-09-15T01:39:25.741Z,12.97
2022-09-15T01:40:25.795Z,13.03
2022-09-15T01:41:25.702Z,13.03
2022-09-15T01:42:25.737Z,13.00
2022-09-15T01:43:25.682Z,12.97
2022-09-15T01:44:25.686Z,12.94
2022-09-15T01:45:25.678Z,12.93
2022-09-15T01:46:25.646Z,12.91
2022-09-15T01:47:25.668Z,12.95
2022-09-15T01:48:25.632Z,12.93
2022-09-15T01:49:25.626Z,12.90
2022-09-15T01:50:25.609Z,12.91
2022-09-15T01:51:25.583Z,12.86
2022-09-15T01:52:25.636Z,12.79
2022-09-15T01:53:25.565Z,12.75
2022-09-15T01:54:25.579Z,12.72
2022-09-15T01:55:25.549Z,12.73
2022-09-15T01:56:25.548Z,12.79
2022-09-15T01:57:25.583Z,12.79
2022-09-15T01:58:25.526Z,12.76
2022-09-15T01:59:25.505Z,12.68
2022-09-15T02:00:25.491Z,12.61
2022-09-15T02:01:25.563Z,12.57
2022-09-15T02:02:25.566Z,12.55
2022-09-15T02:03:25.460Z,12.50
2022-09-15T02:04:25.465Z,12.45
2022-09-15T02:05:25.454Z,12.49
2022-09-15T02:06:25.426Z,12.46
2022-09-15T02:07:25.447Z,12.46
2022-09-15T02:08:25.455Z,12.47
2022-09-15T02:09:25.384Z,12.43
2022-09-15T02:10:25.380Z,12.42
2022-09-15T02:11:25.345Z,12.42
2022-09-15T02:12:25.395Z,12.42
2022-09-15T02:13:25.349Z,12.43
2022-09-15T02:14:25.358Z,12.43
2022-09-15T02:15:25.326Z,12.40
2022-09-15T02:16:25.372Z,12.37
2022-09-15T02:17:25.325Z,12.35
2022-09-15T02:18:25.291Z,12.27
2022-09-15T02:19:25.282Z,12.24
2022-09-15T02:20:25.269Z,12.29
2022-09-15T02:21:25.265Z,12.35
2022-09-15T02:22:25.298Z,12.37
2022-09-15T02:23:25.227Z,12.37
2022-09-15T02:24:25.231Z,12.37
2022-09-15T02:25:25.232Z,12.37
2022-09-15T02:26:25.212Z,12.35
2022-09-15T02:27:25.244Z,12.29
2022-09-15T02:28:25.189Z,12.24
2022-09-15T02:29:25.161Z,12.20
2022-09-15T02:30:25.152Z,12.15
2022-09-15T02:31:25.210Z,12.04
2022-09-15T02:32:25.178Z,11.97
2022-09-15T02:33:25.135Z,11.87
2022-09-15T02:34:25.103Z,11.88
2022-09-15T02:35:25.107Z,11.91
2022-09-15T02:36:26.059Z,11.91
2022-09-15T02:37:25.108Z,11.95
2022-09-15T02:38:25.062Z,11.97
2022-09-15T02:39:25.047Z,12.02
2022-09-15T02:40:25.077Z,12.03
2022-09-15T02:41:25.019Z,11.99
2022-09-15T02:42:25.051Z,11.94
2022-09-15T02:43:24.992Z,11.90
2022-09-15T02:44:25.015Z,11.88
2022-09-15T02:45:25.024Z,11.86
2022-09-15T02:46:24.960Z,11.83
2022-09-15T02:47:24.994Z,11.80
2022-09-15T02:48:24.945Z,11.78
2022-09-15T02:49:24.956Z,11.75
2022-09-15T02:50:24.923Z,11.75
2022-09-15T02:51:24.926Z,11.75
2022-09-15T02:52:24.953Z,11.80
2022-09-15T02:53:24.882Z,11.81
2022-09-15T02:54:24.874Z,11.88
2022-09-15T02:55:24.869Z,11.90
2022-09-15T02:56:24.860Z,11.94
2022-09-15T02:57:24.889Z,11.91
2022-09-15T02:58:24.846Z,11.87
2022-09-15T02:59:24.818Z,11.81
2022-09-15T03:00:24.806Z,11.78
2022-09-15T03:01:24.856Z,11.75
2022-09-15T03:02:24.921Z,11.75
2022-09-15T03:03:24.786Z,11.73
2022-09-15T03:04:24.765Z,11.73
2022-09-15T03:05:24.772Z,11.70
2022-09-15T03:06:24.745Z,11.69
2022-09-15T03:07:24.770Z,11.65
2022-09-15T03:08:24.739Z,11.57
2022-09-15T03:09:24.707Z,11.55
2022-09-15T03:10:24.733Z,11.59
2022-09-15T03:11:24.685Z,11.68
2022-09-15T03:12:24.701Z,11.69
2022-09-15T03:13:24.655Z,11.62
2022-09-15T03:14:24.643Z,11.57
2022-09-15T03:15:24.634Z,11.54
2022-09-15T03:16:24.694Z,11.50
2022-09-15T03:17:24.655Z,11.45
2022-09-15T03:18:24.610Z,11.44
2022-09-15T03:19:24.612Z,11.43
2022-09-15T03:20:24.588Z,11.41
2022-09-15T03:21:24.585Z,11.37
2022-09-15T03:22:24.626Z,11.33
2022-09-15T03:23:24.556Z,11.30
2022-09-15T03:24:24.550Z,11.30
2022-09-15T03:25:24.530Z,11.33
2022-09-15T03:26:24.517Z,11.35
2022-09-15T03:27:24.553Z,11.35
2022-09-15T03:28:24.507Z,11.33
2022-09-15T03:29:24.489Z,11.32
2022-09-15T03:30:24.496Z,11.29
2022-09-15T03:31:24.550Z,11.23
2022-09-15T03:32:24.494Z,11.18
2022-09-15T03:33:24.448Z,11.14
2022-09-15T03:34:24.434Z,11.15
2022-09-15T03:35:24.422Z,11.18
2022-09-15T03:36:24.408Z,11.26
2022-09-15T03:37:24.429Z,11.23
2022-09-15T03:38:24.389Z,11.15
2022-09-15T03:39:24.395Z,11.11
2022-09-15T03:40:24.494Z,11.07
2022-09-15T03:41:24.343Z,11.05
2022-09-15T03:42:24.378Z,11.02
2022-09-15T03:43:24.331Z,11.04
2022-09-15T03:44:24.305Z,11.08
2022-09-15T03:45:24.333Z,11.11
2022-09-15T03:46:24.285Z,11.10
2022-09-15T03:47:24.337Z,11.10
2022-09-15T03:48:24.264Z,11.22
2022-09-15T03:49:24.273Z,11.26
2022-09-15T03:50:24.257Z,11.30
2022-09-15T03:51:24.249Z,11.29
2022-09-15T03:52:24.273Z,11.19
2022-09-15T03:53:24.194Z,11.15
2022-09-15T03:54:24.203Z,11.11
2022-09-15T03:55:24.211Z,11.10
2022-09-15T03:56:24.168Z,11.11
2022-09-15T03:57:24.214Z,11.07
2022-09-15T03:58:26.845Z,11.08
2022-09-15T03:59:25.133Z,11.07
2022-09-15T04:00:24.150Z,11.02
2022-09-15T04:01:24.175Z,10.99
2022-09-15T04:02:24.260Z,10.93
2022-09-15T04:03:24.125Z,11.00
2022-09-15T04:04:24.088Z,11.12
2022-09-15T04:05:24.099Z,11.18
2022-09-15T04:06:24.085Z,11.19
2022-09-15T04:07:24.098Z,11.22
2022-09-15T04:08:24.062Z,11.27
2022-09-15T04:09:24.039Z,11.25
2022-09-15T04:10:24.051Z,11.19
2022-09-15T04:11:24.021Z,11.19
2022-09-15T04:12:24.041Z,11.22
2022-09-15T04:13:28.419Z,11.22
2022-09-15T04:14:23.975Z,11.18
2022-09-15T04:15:23.954Z,11.25
2022-09-15T04:16:24.040Z,11.26
2022-09-15T04:17:23.957Z,11.26
2022-09-15T04:18:23.939Z,11.26
2022-09-15T04:19:23.935Z,11.27
2022-09-15T04:20:23.918Z,11.30
2022-09-15T04:21:23.896Z,11.33
2022-09-15T04:22:23.912Z,11.35
2022-09-15T04:23:23.865Z,11.41
2022-09-15T04:24:23.872Z,11.41
2022-09-15T04:25:23.849Z,11.41
2022-09-15T04:26:23.850Z,11.47
2022-09-15T04:27:23.861Z,11.54
2022-09-15T04:28:23.813Z,11.63
2022-09-15T04:29:23.811Z,11.69
2022-09-15T04:30:23.796Z,11.75
2022-09-15T04:31:23.888Z,11.81
2022-09-15T04:32:23.814Z,11.87
2022-09-15T04:33:23.771Z,11.94
2022-09-15T04:34:23.753Z,12.02
2022-09-15T04:35:23.737Z,12.04
2022-09-15T04:36:23.755Z,12.09
2022-09-15T04:37:23.797Z,12.13
2022-09-15T04:38:23.716Z,12.18
2022-09-15T04:39:23.699Z,12.20
2022-09-15T04:40:23.771Z,12.21
2022-09-15T04:41:23.673Z,12.22
2022-09-15T04:42:23.706Z,12.24
2022-09-15T04:43:23.639Z,12.31
2022-09-15T04:44:23.624Z,12.32
2022-09-15T04:45:23.631Z,12.35
2022-09-15T04:46:23.663Z,12.35
2022-09-15T04:47:23.613Z,12.37
2022-09-15T04:48:23.589Z,12.36
2022-09-15T04:49:23.578Z,12.40
2022-09-15T04:50:23.577Z,12.42
2022-09-15T04:51:23.561Z,12.43
2022-09-15T04:52:23.570Z,12.45
2022-09-15T04:53:23.531Z,12.45
2022-09-15T04:54:23.533Z,12.45
2022-09-15T04:55:23.498Z,12.46
2022-09-15T04:56:23.498Z,12.45
2022-09-15T04:57:23.508Z,12.45
2022-09-15T04:58:23.487Z,12.43
2022-09-15T04:59:23.471Z,12.42
2022-09-15T05:00:23.473Z,12.40
2022-09-15T05:01:23.508Z,12.40
2022-09-15T05:02:23.529Z,12.39
2022-09-15T05:03:23.430Z,12.39
2022-09-15T05:04:23.413Z,12.37
2022-09-15T05:05:23.387Z,12.39
2022-09-15T05:06:23.388Z,12.42
2022-09-15T05:07:23.419Z,12.42
2022-09-15T05:08:23.371Z,12.43
2022-09-15T05:09:23.363Z,12.46
2022-09-15T05:10:23.349Z,12.47
2022-09-15T05:11:23.332Z,12.50
2022-09-15T05:12:23.368Z,12.55
2022-09-15T05:13:23.310Z,12.60
2022-09-15T05:14:23.289Z,12.62
2022-09-15T05:15:23.292Z,12.64
2022-09-15T05:16:23.346Z,12.70
2022-09-15T05:17:26.685Z,12.75
2022-09-15T05:18:23.269Z,12.76
2022-09-15T05:19:23.247Z,12.79
2022-09-15T05:20:23.217Z,12.82
2022-09-15T05:21:23.213Z,12.85
2022-09-15T05:22:23.219Z,12.87
2022-09-15T05:23:23.271Z,12.90
2022-09-15T05:24:23.191Z,12.94
2022-09-15T05:25:23.177Z,12.95
2022-09-15T05:26:23.158Z,12.98
2022-09-15T05:27:23.155Z,13.03
2022-09-15T05:28:23.178Z,13.08
2022-09-15T05:29:23.136Z,13.12
2022-09-15T05:30:37.749Z,13.15
2022-09-15T05:31:24.166Z,13.19
2022-09-15T05:32:23.095Z,13.23
2022-09-15T05:33:23.116Z,13.27
2022-09-15T05:34:23.068Z,13.31
2022-09-15T05:35:23.050Z,13.35
2022-09-15T05:36:23.048Z,13.38
2022-09-15T05:37:23.036Z,13.42
2022-09-15T05:38:23.060Z,13.44
2022-09-15T05:39:23.017Z,13.47
2022-09-15T05:40:23.123Z,13.50
2022-09-15T05:41:22.984Z,13.53
2022-09-15T05:42:22.960Z,13.54
2022-09-15T05:43:23.004Z,13.57
2022-09-15T05:44:22.933Z,13.62
2022-09-15T05:45:22.954Z,13.67
2022-09-15T05:46:22.964Z,13.63
2022-09-15T05:47:22.935Z,13.70
2022-09-15T05:48:22.932Z,13.72
2022-09-15T05:49:22.892Z,13.75
2022-09-15T05:50:22.864Z,13.77
2022-09-15T05:51:22.874Z,13.79
2022-09-15T05:52:22.857Z,13.81
2022-09-15T05:53:22.896Z,13.89
2022-09-15T05:54:22.854Z,13.97
2022-09-15T05:55:22.826Z,14.04
2022-09-15T05:56:22.840Z,14.05
2022-09-15T05:57:22.794Z,14.05
2022-09-15T05:58:22.822Z,14.05
2022-09-15T05:59:22.798Z,14.04
2022-09-15T06:00:22.772Z,14.03
2022-09-15T06:01:22.848Z,14.04
2022-09-15T06:02:22.797Z,14.10
2022-09-15T06:03:24.487Z,14.15
2022-09-15T06:04:22.728Z,14.22
2022-09-15T06:05:22.711Z,14.32
2022-09-15T06:06:22.712Z,14.37
2022-09-15T06:07:22.689Z,14.44
2022-09-15T06:08:22.726Z,14.53
2022-09-15T06:09:22.703Z,14.55
2022-09-15T06:10:22.677Z,14.63
2022-09-15T06:11:22.646Z,14.69
2022-09-15T06:12:22.612Z,14.70
2022-09-15T06:13:22.651Z,14.68
2022-09-15T06:14:22.599Z,14.66
2022-09-15T06:15:22.613Z,14.62
2022-09-15T06:16:22.681Z,14.65
2022-09-15T06:17:22.596Z,14.69
2022-09-15T06:18:22.626Z,14.63
2022-09-15T06:19:22.558Z,14.60
2022-09-15T06:20:22.527Z,14.53
2022-09-15T06:21:22.519Z,14.48
2022-09-15T06:22:22.526Z,14.51
2022-09-15T06:23:22.518Z,14.51
2022-09-15T06:24:22.534Z,14.53
2022-09-15T06:25:22.509Z,14.51
2022-09-15T06:26:22.461Z,14.51
2022-09-15T06:27:22.471Z,14.55
2022-09-15T06:28:22.448Z,14.58
2022-09-15T06:29:22.484Z,14.55
2022-09-15T06:30:22.435Z,14.59
2022-09-15T06:31:22.462Z,14.59
2022-09-15T06:32:22.405Z,14.62
2022-09-15T06:33:22.394Z,14.59
2022-09-15T06:34:22.418Z,14.55
2022-09-15T06:35:22.386Z,14.60
2022-09-15T06:36:22.385Z,14.66
2022-09-15T06:37:22.350Z,14.66
2022-09-15T06:38:22.350Z,14.66
2022-09-15T06:39:22.386Z,14.66
2022-09-15T06:40:22.381Z,14.60
2022-09-15T06:41:22.320Z,14.55
2022-09-15T06:42:22.299Z,14.55
2022-09-15T06:43:22.290Z,14.59
2022-09-15T06:44:22.333Z,14.59
2022-09-15T06:45:22.275Z,14.65
2022-09-15T06:46:22.286Z,14.68
2022-09-15T06:47:22.247Z,14.63
2022-09-15T06:48:24.837Z,14.55
2022-09-15T06:49:22.251Z,14.44
2022-09-15T06:50:22.208Z,14.43
2022-09-15T06:51:22.180Z,14.41
2022-09-15T06:52:22.170Z,14.44
2022-09-15T06:53:22.160Z,14.45
2022-09-15T06:54:22.179Z,14.45
2022-09-15T06:55:22.175Z,14.45
2022-09-15T06:56:22.151Z,14.44
2022-09-15T06:57:22.143Z,14.41
2022-09-15T06:58:22.152Z,14.44
2022-09-15T06:59:22.119Z,14.43
2022-09-15T07:00:22.093Z,14.36
2022-09-15T07:01:22.088Z,14.36
2022-09-15T07:02:22.198Z,14.41
2022-09-15T07:03:22.215Z,14.37
2022-09-15T07:04:22.042Z,14.37
2022-09-15T07:05:22.028Z,14.36
2022-09-15T07:06:22.045Z,14.35
2022-09-15T07:07:22.012Z,14.41
2022-09-15T07:08:22.036Z,14.47
2022-09-15T07:09:21.988Z,14.53
2022-09-15T07:10:21.990Z,14.51
2022-09-15T07:11:21.971Z,14.51
2022-09-15T07:12:21.939Z,14.55
2022-09-15T07:13:21.991Z,14.60
2022-09-15T07:14:21.919Z,14.63
2022-09-15T07:15:21.922Z,14.50
2022-09-15T07:16:21.985Z,14.51
2022-09-15T07:17:21.912Z,14.58
2022-09-15T07:18:21.902Z,14.70
2022-09-15T07:19:21.909Z,14.85
2022-09-15T07:20:21.859Z,14.97
2022-09-15T07:21:21.851Z,15.09
2022-09-15T07:22:21.852Z,15.21
2022-09-15T07:23:21.819Z,15.29
2022-09-15T07:24:21.840Z,15.36
2022-09-15T07:25:21.798Z,15.39
2022-09-15T07:26:21.786Z,15.36
2022-09-15T07:27:21.793Z,15.35
2022-09-15T07:28:21.769Z,15.46
2022-09-15T07:29:21.803Z,15.59
2022-09-15T07:30:21.752Z,15.65
2022-09-15T07:31:21.768Z,15.57
2022-09-15T07:32:21.730Z,15.64
2022-09-15T07:33:21.736Z,15.77
2022-09-15T07:34:21.753Z,15.98
2022-09-15T07:35:21.711Z,16.21
2022-09-15T07:36:21.683Z,16.23
2022-09-15T07:37:21.677Z,16.31
2022-09-15T07:38:21.668Z,16.51
2022-09-15T07:39:21.699Z,16.66
2022-09-15T07:40:21.731Z,16.68
2022-09-15T07:41:21.661Z,16.71
2022-09-15T07:42:21.631Z,16.71
2022-09-15T07:43:21.614Z,16.66
2022-09-15T07:44:21.638Z,16.78
2022-09-15T07:45:21.625Z,16.71
2022-09-15T07:46:21.570Z,16.89
2022-09-15T07:47:21.573Z,16.97
2022-09-15T07:48:25.778Z,17.06
2022-09-15T07:49:22.588Z,17.24
2022-09-15T07:50:21.529Z,17.52
2022-09-15T07:51:21.514Z,17.57
2022-09-15T07:52:21.510Z,17.87
2022-09-15T07:53:21.491Z,18.31
2022-09-15T07:54:23.002Z,18.58
2022-09-15T07:55:21.462Z,18.89
2022-09-15T07:56:21.448Z,18.81
2022-09-15T07:57:21.443Z,18.89
2022-09-15T07:58:21.421Z,18.60
2022-09-15T07:59:21.459Z,18.65
2022-09-15T08:00:21.401Z,18.75
2022-09-15T08:01:21.433Z,18.58
2022-09-15T08:02:21.501Z,18.55
2022-09-15T08:03:21.399Z,18.62
2022-09-15T08:04:21.419Z,18.71
2022-09-15T08:05:21.352Z,18.71
2022-09-15T08:06:21.347Z,18.71
2022-09-15T08:07:21.322Z,18.52
2022-09-15T08:08:21.304Z,18.38
2022-09-15T08:09:21.351Z,18.28
2022-09-15T08:10:21.349Z,18.26
2022-09-15T08:11:21.293Z,18.29
2022-09-15T08:12:21.292Z,18.28
2022-09-15T08:13:21.280Z,18.28
2022-09-15T08:14:21.288Z,18.35
2022-09-15T08:15:21.263Z,18.50
2022-09-15T08:16:21.271Z,18.71
2022-09-15T08:17:21.234Z,18.68
2022-09-15T08:18:21.215Z,18.70
2022-09-15T08:19:21.247Z,18.66
2022-09-15T08:20:21.241Z,18.71
2022-09-15T08:21:21.213Z,18.83
2022-09-15T08:22:21.160Z,18.88
2022-09-15T08:23:21.159Z,18.81
2022-09-15T08:24:21.167Z,18.66
2022-09-15T08:25:21.132Z,18.88
2022-09-15T08:26:21.146Z,18.93
2022-09-15T08:27:21.134Z,19.11
2022-09-15T08:28:21.087Z,19.22
2022-09-15T08:29:21.112Z,19.08
2022-09-15T08:30:21.075Z,19.12
2022-09-15T08:31:21.112Z,19.21
2022-09-15T08:32:21.051Z,19.26
2022-09-15T08:33:21.042Z,19.15
2022-09-15T08:34:21.066Z,19.02
2022-09-15T08:35:21.044Z,19.00
2022-09-15T08:36:21.007Z,18.73
2022-09-15T08:37:20.987Z,18.88
2022-09-15T08:38:20.987Z,19.12
2022-09-15T08:39:21.023Z,19.70
2022-09-15T08:40:21.120Z,20.55
2022-09-15T08:41:20.948Z,21.22
2022-09-15T08:42:20.942Z,21.54
2022-09-15T08:43:20.933Z,21.39
2022-09-15T08:44:20.959Z,21.43
2022-09-15T08:45:20.910Z,21.99
2022-09-15T08:46:20.918Z,22.13
2022-09-15T08:47:20.899Z,21.72
2022-09-15T08:48:20.863Z,21.80
2022-09-15T08:49:35.766Z,22.17
2022-09-15T08:50:21.848Z,21.98
2022-09-15T08:51:20.843Z,21.85
2022-09-15T08:52:20.819Z,22.00
2022-09-15T08:53:20.871Z,22.20
2022-09-15T08:54:20.814Z,22.84
2022-09-15T08:55:20.782Z,22.63
2022-09-15T08:56:20.791Z,22.47
2022-09-15T08:57:20.772Z,22.54
2022-09-15T08:58:20.786Z,21.89
2022-09-15T08:59:20.734Z,22.02
2022-09-15T09:00:20.719Z,22.35
2022-09-15T09:01:20.763Z,22.47
2022-09-15T09:02:20.743Z,22.25
2022-09-15T09:03:20.735Z,22.55
2022-09-15T09:04:20.684Z,22.78
2022-09-15T09:05:20.676Z,22.96
2022-09-15T09:06:20.673Z,23.13
2022-09-15T09:07:20.674Z,23.62
2022-09-15T09:08:20.688Z,24.23
2022-09-15T09:09:20.659Z,24.65
2022-09-15T09:10:20.619Z,24.61
2022-09-15T09:11:20.618Z,24.61
2022-09-15T09:12:20.636Z,25.14
2022-09-15T09:13:20.633Z,25.16
2022-09-15T09:14:20.594Z,25.50
2022-09-15T09:15:20.575Z,25.18
2022-09-15T09:16:20.654Z,24.13
2022-09-15T09:17:20.570Z,24.36
2022-09-15T09:18:20.572Z,24.42
2022-09-15T09:19:20.543Z,24.24
2022-09-15T09:20:20.508Z,24.21
2022-09-15T09:21:20.509Z,24.06
2022-09-15T09:22:20.488Z,23.76
2022-09-15T09:23:20.525Z,23.73
2022-09-15T09:24:20.466Z,23.46
2022-09-15T09:25:28.463Z,23.37
2022-09-15T09:26:21.450Z,23.02
2022-09-15T09:27:20.451Z,22.38
2022-09-15T09:28:20.481Z,22.70
2022-09-15T09:29:20.424Z,22.54
2022-09-15T09:30:20.422Z,22.15
2022-09-15T09:31:20.446Z,22.02
2022-09-15T09:32:21.847Z,21.57
2022-09-15T09:33:20.386Z,21.33
2022-09-15T09:34:20.375Z,21.22
2022-09-15T09:35:20.347Z,21.18
2022-09-15T09:36:20.351Z,21.39
2022-09-15T09:37:20.330Z,21.24
2022-09-15T09:38:20.357Z,21.24
2022-09-15T09:39:20.304Z,21.14
2022-09-15T09:40:20.373Z,21.18
2022-09-15T09:41:20.292Z,21.24
2022-09-15T09:42:20.273Z,21.09
2022-09-15T09:43:20.291Z,21.09
2022-09-15T09:44:20.241Z,21.03
2022-09-15T09:45:20.250Z,20.85
2022-09-15T09:46:20.293Z,20.96
2022-09-15T09:47:20.212Z,20.88
2022-09-15T09:48:20.232Z,21.02
2022-09-15T09:49:20.194Z,21.51
2022-09-15T09:50:20.185Z,22.08
2022-09-15T09:51:20.178Z,22.83
2022-09-15T09:52:22.077Z,22.22
2022-09-15T09:53:20.229Z,22.00
2022-09-15T09:54:20.152Z,21.77
2022-09-15T09:55:20.131Z,21.21
2022-09-15T09:56:20.108Z,20.99
2022-09-15T09:57:20.103Z,20.81
2022-09-15T09:58:20.166Z,20.36
2022-09-15T09:59:20.088Z,20.09
2022-09-15T10:00:20.079Z,19.77
2022-09-15T10:01:20.139Z,19.66
2022-09-15T10:02:20.060Z,19.41
2022-09-15T10:03:20.054Z,19.22
2022-09-15T10:04:20.035Z,18.95
2022-09-15T10:05:20.022Z,18.77
2022-09-15T10:06:20.019Z,18.56
2022-09-15T10:07:19.985Z,18.53
2022-09-15T10:08:20.012Z,18.55
2022-09-15T10:09:19.965Z,18.53
2022-09-15T10:10:19.964Z,18.53
2022-09-15T10:11:19.943Z,18.58
2022-09-15T10:12:19.944Z,18.65
2022-09-15T10:13:19.933Z,18.77
2022-09-15T10:14:19.970Z,18.88
2022-09-15T10:15:19.900Z,19.04
2022-09-15T10:16:19.935Z,19.37
2022-09-15T10:17:19.891Z,19.62
2022-09-15T10:18:19.872Z,19.62
2022-09-15T10:19:19.888Z,19.82
2022-09-15T10:20:19.852Z,20.13
2022-09-15T10:21:19.843Z,21.11
2022-09-15T10:22:19.855Z,21.50
2022-09-15T10:23:19.816Z,22.41
2022-09-15T10:24:19.834Z,22.25
2022-09-15T10:25:19.788Z,22.18
2022-09-15T10:26:19.800Z,22.04
2022-09-15T10:27:19.771Z,22.04
2022-09-15T10:28:19.769Z,22.32
2022-09-15T10:29:19.771Z,22.44
2022-09-15T10:30:19.745Z,23.31
2022-09-15T10:31:19.763Z,23.63
2022-09-15T10:32:24.327Z,24.16
2022-09-15T10:33:20.713Z,24.40
2022-09-15T10:34:19.717Z,24.78
2022-09-15T10:35:19.659Z,25.04
2022-09-15T10:36:19.668Z,24.70
2022-09-15T10:37:19.646Z,24.38
2022-09-15T10:38:19.657Z,23.68
2022-09-15T10:39:19.678Z,22.85
2022-09-15T10:40:19.691Z,22.25
2022-09-15T10:41:19.614Z,21.64
2022-09-15T10:42:19.634Z,21.02
2022-09-15T10:43:19.579Z,20.88
2022-09-15T10:44:19.657Z,20.90
2022-09-15T10:45:19.546Z,20.67
2022-09-15T10:46:19.634Z,20.63
2022-09-15T10:47:19.522Z,20.60
2022-09-15T10:48:19.539Z,20.58
2022-09-15T10:49:19.551Z,20.44
2022-09-15T10:50:19.514Z,20.26
2022-09-15T10:51:19.506Z,20.21
2022-09-15T10:52:19.512Z,20.37
2022-09-15T10:53:19.507Z,21.00
2022-09-15T10:54:19.521Z,21.06
2022-09-15T10:55:31.801Z,20.99
2022-09-15T10:56:20.458Z,20.93
2022-09-15T10:57:19.495Z,20.96
2022-09-15T10:58:19.433Z,20.95
2022-09-15T10:59:19.447Z,21.03
2022-09-15T11:00:19.420Z,21.05
2022-09-15T11:01:19.412Z,21.18
2022-09-15T11:02:19.491Z,20.90
2022-09-15T11:03:19.366Z,20.82
2022-09-15T11:04:19.381Z,20.56
2022-09-15T11:05:22.023Z,20.52
2022-09-15T11:06:19.331Z,20.29
2022-09-15T11:07:19.304Z,20.25
2022-09-15T11:08:19.341Z,20.67
2022-09-15T11:09:19.332Z,21.79
2022-09-15T11:10:19.284Z,22.48
2022-09-15T11:11:19.289Z,22.20
2022-09-15T11:12:19.284Z,21.70
2022-09-15T11:13:19.242Z,21.40
2022-09-15T11:14:19.294Z,20.93
2022-09-15T11:15:19.234Z,20.50
2022-09-15T11:16:19.285Z,20.13
2022-09-15T11:17:19.206Z,20.03
2022-09-15T11:18:19.216Z,19.67
2022-09-15T11:19:19.239Z,19.52
2022-09-15T11:20:19.198Z,19.40
2022-09-15T11:21:19.173Z,19.15
2022-09-15T11:22:19.176Z,18.93
2022-09-15T11:23:19.139Z,18.78
2022-09-15T11:24:19.171Z,18.77
2022-09-15T11:25:19.121Z,18.70
2022-09-15T11:26:19.118Z,18.71
2022-09-15T11:27:19.135Z,18.66
2022-09-15T11:28:19.100Z,18.71
2022-09-15T11:29:19.103Z,18.63
2022-09-15T11:30:19.090Z,18.59
2022-09-15T11:31:19.088Z,18.52
2022-09-15T11:32:19.101Z,18.47
2022-09-15T11:33:19.059Z,18.44
2022-09-15T11:34:19.087Z,18.34
2022-09-15T11:35:19.016Z,18.33
2022-09-15T11:36:19.010Z,18.31
2022-09-15T11:37:18.976Z,18.28
2022-09-15T11:38:18.966Z,18.26
2022-09-15T11:39:18.987Z,18.25
2022-09-15T11:40:19.076Z,18.23
2022-09-15T11:41:18.924Z,18.20
2022-09-15T11:42:18.965Z,18.16
2022-09-15T11:43:18.917Z,18.13
2022-09-15T11:44:18.947Z,18.07
2022-09-15T11:45:18.896Z,18.01
2022-09-15T11:46:18.981Z,17.94
2022-09-15T11:47:18.874Z,17.90
2022-09-15T11:48:18.881Z,17.94
2022-09-15T11:49:18.893Z,17.94
2022-09-15T11:50:18.840Z,17.90
2022-09-15T11:51:18.854Z,17.89
2022-09-15T11:52:18.875Z,17.90
2022-09-15T11:53:18.820Z,17.85
2022-09-15T11:54:18.827Z,17.89
2022-09-15T11:55:18.778Z,17.95
2022-09-15T11:56:18.783Z,18.01
2022-09-15T11:57:18.759Z,18.08
2022-09-15T11:58:22.005Z,18.15
2022-09-15T11:59:18.779Z,18.18
2022-09-15T12:00:18.742Z,18.25
2022-09-15T12:01:18.713Z,18.26
2022-09-15T12:02:18.776Z,18.37
2022-09-15T12:03:18.743Z,18.44
2022-09-15T12:04:18.734Z,18.55
2022-09-15T12:05:19.497Z,18.58
2022-09-15T12:06:18.655Z,18.60
2022-09-15T12:07:18.658Z,18.75
2022-09-15T12:08:18.627Z,18.92
2022-09-15T12:09:18.654Z,19.11
2022-09-15T12:10:18.618Z,19.30
2022-09-15T12:11:18.593Z,19.36
2022-09-15T12:12:18.689Z,19.34
2022-09-15T12:13:18.585Z,19.49
2022-09-15T12:14:18.618Z,19.56
2022-09-15T12:15:18.564Z,19.76
2022-09-15T12:16:18.621Z,19.86
2022-09-15T12:17:18.528Z,20.13
2022-09-15T12:18:37.123Z,20.26
2022-09-15T12:19:19.546Z,20.31
2022-09-15T12:20:18.513Z,20.52
2022-09-15T12:21:18.510Z,20.72
2022-09-15T12:22:18.634Z,20.67
2022-09-15T12:23:18.453Z,20.78
2022-09-15T12:24:18.513Z,20.66
2022-09-15T12:25:18.454Z,20.77
2022-09-15T12:26:18.458Z,20.77
2022-09-15T12:27:18.432Z,20.39
2022-09-15T12:28:18.493Z,20.07
2022-09-15T12:29:18.440Z,19.95
2022-09-15T12:30:18.407Z,19.91
2022-09-15T12:31:18.411Z,19.74
2022-09-15T12:32:18.390Z,19.52
2022-09-15T12:33:18.368Z,19.70
2022-09-15T12:34:18.412Z,19.76
2022-09-15T12:35:18.343Z,19.82
2022-09-15T12:36:18.331Z,19.82
2022-09-15T12:37:18.328Z,19.89
2022-09-15T12:38:18.299Z,19.95
2022-09-15T12:39:18.347Z,19.85
2022-09-15T12:40:18.328Z,19.82
2022-09-15T12:41:18.256Z,19.84
2022-09-15T12:42:18.249Z,19.88
2022-09-15T12:43:18.258Z,19.88
2022-09-15T12:44:18.245Z,20.00
2022-09-15T12:45:18.264Z,20.04
2022-09-15T12:46:18.313Z,20.09
2022-09-15T12:47:18.207Z,20.04
2022-09-15T12:48:18.212Z,20.09
2022-09-15T12:49:18.176Z,20.19
2022-09-15T12:50:18.204Z,20.36
2022-09-15T12:51:18.174Z,20.39
2022-09-15T12:52:18.165Z,20.58